createdAt,value
2023-05-19T00:02:09.337Z,98672.53
2023-05-19T00:05:15.109Z,98677.72
2023-05-19T00:08:19.643Z,98680.16
2023-05-19T00:11:23.839Z,98681.22
2023-05-19T00:14:29.064Z,98671.28
2023-05-19T00:17:34.256Z,98675.31
2023-05-19T00:20:38.059Z,98674.25
2023-05-19T00:23:41.043Z,98672.38
2023-05-19T00:26:43.811Z,98673.47
2023-05-19T00:29:47.955Z,98675.88
2023-05-19T00:32:50.772Z,98671.59
2023-05-19T00:35:53.751Z,98668.38
2023-05-19T00:38:56.533Z,98667.03
2023-05-19T00:41:59.272Z,98668.44
2023-05-19T00:45:03.426Z,98670.88
2023-05-19T00:48:06.427Z,98661.44
2023-05-19T00:51:09.303Z,98671.72
2023-05-19T00:54:12.160Z,98671.75
2023-05-19T00:57:15.572Z,98662.31
2023-05-19T01:00:19.863Z,98658.78
2023-05-19T01:03:23.299Z,98659.59
2023-05-19T01:06:27.745Z,98658.28
2023-05-19T01:09:32.211Z,98651.31
2023-05-19T01:12:35.585Z,98650.25
2023-05-19T01:15:49.480Z,98658.31
2023-05-19T01:19:01.705Z,98657.28
2023-05-19T01:22:28.646Z,98661.59
2023-05-19T01:26:10.656Z,98657.31
2023-05-19T01:29:36.880Z,98667.25
2023-05-19T01:32:43.317Z,98671.28
2023-05-19T01:35:47.280Z,98669.13
2023-05-19T01:38:52.554Z,98668.84
2023-05-19T01:41:56.063Z,98667.75
2023-05-19T01:44:58.927Z,98667.75
2023-05-19T01:48:04.795Z,98666.41
2023-05-19T01:51:07.717Z,98670.19
2023-05-19T01:54:10.468Z,98669.09
2023-05-19T01:57:24.519Z,98663.47
2023-05-19T02:00:39.678Z,98662.94
2023-05-19T02:03:56.864Z,98662.16
2023-05-19T02:07:06.500Z,98665.13
2023-05-19T02:10:15.601Z,98657.84
2023-05-19T02:13:21.996Z,98655.44
2023-05-19T02:16:29.665Z,98656.53
2023-05-19T02:19:35.464Z,98660.56
2023-05-19T02:22:38.437Z,98664.31
2023-05-19T02:25:41.271Z,98668.63
2023-05-19T02:28:44.015Z,98661.91
2023-05-19T02:31:47.059Z,98668.88
2023-05-19T02:34:51.440Z,98665.91
2023-05-19T02:37:54.329Z,98671.84
2023-05-19T02:40:57.070Z,98674.28
2023-05-19T02:44:00.024Z,98664.84
2023-05-19T02:47:02.969Z,98662.16
2023-05-19T02:50:09.078Z,98659.47
2023-05-19T02:53:11.860Z,98668.91
2023-05-19T02:56:14.662Z,98657.06
2023-05-19T02:59:17.357Z,98657.09
2023-05-19T03:02:20.123Z,98650.91
2023-05-19T03:05:24.713Z,98653.03
2023-05-19T03:08:27.489Z,98640.97
2023-05-19T03:11:30.932Z,98645.81
2023-05-19T03:14:34.543Z,98652.28
2023-05-19T03:17:37.353Z,98647.44
2023-05-19T03:20:42.476Z,98652.81
2023-05-19T03:23:45.477Z,98646.63
2023-05-19T03:26:48.228Z,98661.94
2023-05-19T03:29:52.836Z,98652.53
2023-05-19T03:32:55.622Z,98650.66
2023-05-19T03:36:00.009Z,98650.91
2023-05-19T03:39:02.797Z,98654.44
2023-05-19T03:42:05.851Z,98655.22
2023-05-19T03:45:09.507Z,98654.41
2023-05-19T03:48:12.550Z,98653.88
2023-05-19T03:51:16.679Z,98652.25
2023-05-19T03:54:21.063Z,98656.56
2023-05-19T03:57:23.894Z,98661.09
2023-05-19T04:00:26.611Z,98663.25
2023-05-19T04:03:29.482Z,98670.22
2023-05-19T04:06:33.880Z,98675.03
2023-05-19T04:09:37.743Z,98667.25
2023-05-19T04:12:40.606Z,98670.97
2023-05-19T04:15:43.513Z,98676.88
2023-05-19T04:18:46.680Z,98683.06
2023-05-19T04:21:50.992Z,98685.22
2023-05-19T04:24:53.767Z,98683.59
2023-05-19T04:27:57.884Z,98681.44
2023-05-19T04:31:01.326Z,98675.81
2023-05-19T04:34:04.042Z,98677.41
2023-05-19T04:37:10.153Z,98682.25
2023-05-19T04:40:13.705Z,98676.09
2023-05-19T04:43:18.065Z,98683.88
2023-05-19T04:46:24.378Z,98671.00
2023-05-19T04:49:27.350Z,98675.59
2023-05-19T04:52:31.508Z,98677.75
2023-05-19T04:55:34.694Z,98672.13
2023-05-19T04:58:39.577Z,98680.97
2023-05-19T05:01:43.664Z,98674.00
2023-05-19T05:04:46.506Z,98675.94
2023-05-19T05:07:50.688Z,98685.34
2023-05-19T05:10:53.922Z,98690.19
2023-05-19T05:13:58.333Z,98693.94
2023-05-19T05:17:02.445Z,98686.94
2023-05-19T05:20:06.899Z,98674.81
2023-05-19T05:23:14.661Z,98675.63
2023-05-19T05:26:19.786Z,98675.63
2023-05-19T05:29:22.746Z,98673.47
2023-05-19T05:32:25.672Z,98677.22
2023-05-19T05:35:29.270Z,98676.97
2023-05-19T05:38:33.781Z,98678.84
2023-05-19T05:41:36.642Z,98676.91
2023-05-19T05:44:39.377Z,98675.56
2023-05-19T05:47:42.744Z,98676.59
2023-05-19T05:50:46.934Z,98680.06
2023-05-19T05:53:54.033Z,98674.44
2023-05-19T05:56:57.556Z,98680.81
2023-05-19T06:00:00.379Z,98678.34
2023-05-19T06:03:03.379Z,98676.97
2023-05-19T06:06:06.698Z,98681.25
2023-05-19T06:09:10.876Z,98676.94
2023-05-19T06:12:13.667Z,98671.03
2023-05-19T06:15:16.650Z,98681.22
2023-05-19T06:18:19.593Z,98671.16
2023-05-19T06:21:22.800Z,98677.84
2023-05-19T06:24:26.953Z,98674.28
2023-05-19T06:27:29.735Z,98676.78
2023-05-19T06:30:32.978Z,98676.34
2023-05-19T06:33:35.868Z,98670.50
2023-05-19T06:36:38.569Z,98666.47
2023-05-19T06:39:42.698Z,98666.25
2023-05-19T06:42:45.436Z,98669.25
2023-05-19T06:45:48.092Z,98663.19
2023-05-19T06:48:50.847Z,98664.22
2023-05-19T06:51:53.551Z,98665.13
2023-05-19T06:54:57.623Z,98658.47
2023-05-19T06:58:01.496Z,98664.97
2023-05-19T07:01:04.323Z,98668.66
2023-05-19T07:04:07.165Z,98671.66
2023-05-19T07:07:10.212Z,98667.09
2023-05-19T07:10:14.461Z,98667.28
2023-05-19T07:13:17.784Z,98671.81
2023-05-19T07:16:20.611Z,98660.81
2023-05-19T07:19:24.053Z,98662.84
2023-05-19T07:22:26.964Z,98656.06
2023-05-19T07:25:31.087Z,98656.72
2023-05-19T07:28:34.369Z,98661.00
2023-05-19T07:31:37.248Z,98661.16
2023-05-19T07:34:41.444Z,98657.34
2023-05-19T07:37:44.220Z,98660.13
2023-05-19T07:40:48.419Z,98661.09
2023-05-19T07:43:51.210Z,98658.91
2023-05-19T07:46:54.055Z,98661.38
2023-05-19T07:49:56.796Z,98650.28
2023-05-19T07:52:59.632Z,98651.16
2023-05-19T07:56:03.890Z,98648.63
2023-05-19T07:59:07.915Z,98643.81
2023-05-19T08:02:10.707Z,98641.78
2023-05-19T08:05:13.621Z,98651.09
2023-05-19T08:08:17.267Z,98646.41
2023-05-19T08:11:21.428Z,98639.75
2023-05-19T08:14:24.264Z,98641.81
2023-05-19T08:17:27.230Z,98631.88
2023-05-19T08:20:30.213Z,98631.88
2023-05-19T08:23:33.151Z,98631.50
2023-05-19T08:26:37.961Z,98634.59
2023-05-19T08:29:41.008Z,98631.28
2023-05-19T08:32:43.822Z,98631.88
2023-05-19T08:35:46.585Z,98627.72
2023-05-19T08:38:49.362Z,98619.94
2023-05-19T08:41:53.746Z,98620.38
2023-05-19T08:44:56.628Z,98628.75
2023-05-19T08:47:59.640Z,98621.69
2023-05-19T08:51:10.452Z,98615.28
2023-05-19T08:54:16.028Z,98624.75
2023-05-19T08:57:20.373Z,98620.38
2023-05-19T09:00:24.194Z,98616.22
2023-05-19T09:03:29.142Z,98622.22
2023-05-19T09:06:32.771Z,98618.28
2023-05-19T09:09:35.674Z,98617.59
2023-05-19T09:12:39.749Z,98623.16
2023-05-19T09:15:43.511Z,98610.78
2023-05-19T09:18:55.940Z,98618.94
2023-05-19T09:22:03.210Z,98614.56
2023-05-19T09:25:06.559Z,98619.41
2023-05-19T09:28:10.929Z,98618.47
2023-05-19T09:31:13.727Z,98619.19
2023-05-19T09:34:16.485Z,98614.31
2023-05-19T09:37:19.369Z,98625.38
2023-05-19T09:40:22.200Z,98628.31
2023-05-19T09:43:28.589Z,98615.59
2023-05-19T09:46:31.355Z,98621.25
2023-05-19T09:49:34.155Z,98616.88
2023-05-19T09:52:38.700Z,98615.16
2023-05-19T09:55:42.020Z,98611.91
2023-05-19T09:58:46.956Z,98609.41
2023-05-19T10:01:50.016Z,98602.53
2023-05-19T10:04:54.979Z,98608.38
2023-05-19T10:07:57.995Z,98603.66
2023-05-19T10:11:01.621Z,98599.19
2023-05-19T10:14:06.612Z,98601.38
2023-05-19T10:17:10.742Z,98594.88
2023-05-19T10:20:15.073Z,98593.25
2023-05-19T10:23:17.810Z,98601.22
2023-05-19T10:26:21.536Z,98591.38
2023-05-19T10:29:29.811Z,98592.19
2023-05-19T10:32:34.518Z,98588.38
2023-05-19T10:36:00.647Z,98591.06
2023-05-19T10:39:08.154Z,98596.97
2023-05-19T10:42:16.700Z,98600.59
2023-05-19T10:45:23.456Z,98589.78
2023-05-19T10:48:26.441Z,98585.44
2023-05-19T10:51:32.387Z,98580.19
2023-05-19T10:54:43.390Z,98591.13
2023-05-19T10:57:56.600Z,98584.78
2023-05-19T11:01:02.775Z,98587.19
2023-05-19T11:04:07.710Z,98580.69
2023-05-19T11:07:11.004Z,98584.13
2023-05-19T11:10:14.367Z,98578.72
2023-05-19T11:13:23.007Z,98582.44
2023-05-19T11:16:30.935Z,98585.63
2023-05-19T11:19:35.664Z,98587.03
2023-05-19T11:22:38.860Z,98588.66
2023-05-19T11:25:46.831Z,98583.00
2023-05-19T11:28:50.180Z,98578.03
2023-05-19T11:31:55.543Z,98586.66
2023-05-19T11:34:59.188Z,98584.00
2023-05-19T11:38:03.256Z,98580.44
2023-05-19T11:41:06.195Z,98577.94
2023-05-19T11:44:11.773Z,98573.63
2023-05-19T11:47:17.052Z,98580.84
2023-05-19T11:50:20.717Z,98575.16
2023-05-19T11:53:24.132Z,98580.56
2023-05-19T11:56:26.851Z,98569.81
2023-05-19T11:59:35.642Z,98563.84
2023-05-19T12:02:40.409Z,98566.13
2023-05-19T12:05:46.852Z,98565.22
2023-05-19T12:08:52.223Z,98565.53
2023-05-19T12:11:56.227Z,98556.97
2023-05-19T12:14:59.013Z,98557.69
2023-05-19T12:18:03.945Z,98571.19
2023-05-19T12:21:07.200Z,98565.72
2023-05-19T12:24:11.010Z,98557.44
2023-05-19T12:27:20.452Z,98564.75
2023-05-19T12:30:28.823Z,98570.00
2023-05-19T12:33:35.727Z,98572.00
2023-05-19T12:36:39.094Z,98569.38
2023-05-19T12:39:43.682Z,98572.00
2023-05-19T12:42:48.200Z,98574.06
2023-05-19T12:45:52.262Z,98564.81
2023-05-19T12:49:00.795Z,98573.22
2023-05-19T12:52:07.212Z,98569.09
2023-05-19T12:55:14.416Z,98560.88
2023-05-19T12:58:17.346Z,98563.88
2023-05-19T13:01:20.477Z,98566.56
2023-05-19T13:04:24.910Z,98570.56
2023-05-19T13:07:27.874Z,98564.72
2023-05-19T13:10:31.593Z,98567.78
2023-05-19T13:13:34.822Z,98568.28
2023-05-19T13:16:37.669Z,98566.97
2023-05-19T13:19:42.096Z,98557.47
2023-05-19T13:22:44.895Z,98558.72
2023-05-19T13:25:47.642Z,98560.81
2023-05-19T13:28:50.376Z,98550.66
2023-05-19T13:31:53.130Z,98546.47
2023-05-19T13:34:57.361Z,98540.00
2023-05-19T13:38:00.073Z,98534.59
2023-05-19T13:41:02.848Z,98543.94
2023-05-19T13:44:05.698Z,98539.22
2023-05-19T13:47:08.469Z,98532.19
2023-05-19T13:50:12.903Z,98538.78
2023-05-19T13:53:15.741Z,98539.06
2023-05-19T13:56:18.504Z,98542.75
2023-05-19T13:59:21.741Z,98542.25
2023-05-19T14:02:24.578Z,98540.16
2023-05-19T14:05:29.198Z,98532.91
2023-05-19T14:08:32.298Z,98531.53
2023-05-19T14:11:35.140Z,98533.53
2023-05-19T14:14:38.051Z,98524.41
2023-05-19T14:17:41.128Z,98529.50
2023-05-19T14:20:45.286Z,98519.91
2023-05-19T14:23:48.051Z,98514.03
2023-05-19T14:26:51.010Z,98518.13
2023-05-19T14:29:53.952Z,98518.25
2023-05-19T14:32:57.377Z,98514.88
2023-05-19T14:36:02.021Z,98507.84
2023-05-19T14:39:04.822Z,98517.88
2023-05-19T14:42:07.583Z,98512.56
2023-05-19T14:45:11.614Z,98519.28
2023-05-19T14:48:14.401Z,98515.25
2023-05-19T14:51:18.578Z,98517.16
2023-05-19T14:54:21.500Z,98514.75
2023-05-19T14:57:24.381Z,98518.78
2023-05-19T15:00:27.153Z,98520.59
2023-05-19T15:03:29.971Z,98522.47
2023-05-19T15:06:34.098Z,98520.28
2023-05-19T15:09:36.997Z,98523.38
2023-05-19T15:12:39.934Z,98514.75
2023-05-19T15:15:42.712Z,98507.25
2023-05-19T15:18:45.692Z,98509.44
2023-05-19T15:21:50.709Z,98502.94
2023-05-19T15:24:53.598Z,98505.75
2023-05-19T15:27:56.374Z,98498.31
2023-05-19T15:30:59.242Z,98505.63
2023-05-19T15:34:01.977Z,98494.03
2023-05-19T15:37:06.617Z,98487.31
2023-05-19T15:40:10.756Z,98499.91
2023-05-19T15:43:13.754Z,98494.41
2023-05-19T15:46:19.110Z,98499.13
2023-05-19T15:49:22.044Z,98485.09
2023-05-19T15:52:26.240Z,98480.38
2023-05-19T15:55:29.115Z,98474.97
2023-05-19T15:58:31.930Z,98481.47
2023-05-19T16:01:35.063Z,98477.69
2023-05-19T16:04:38.009Z,98476.56
2023-05-19T16:07:42.784Z,98469.25
2023-05-19T16:10:45.448Z,98461.06
2023-05-19T16:13:48.256Z,98459.44
2023-05-19T16:16:51.197Z,98453.41
2023-05-19T16:19:54.505Z,98446.72
2023-05-19T16:22:58.941Z,98449.91
2023-05-19T16:26:01.994Z,98443.28
2023-05-19T16:29:04.763Z,98443.56
2023-05-19T16:32:08.465Z,98441.88
2023-05-19T16:35:11.568Z,98440.47
2023-05-19T16:38:15.842Z,98446.19
2023-05-19T16:41:18.746Z,98437.06
2023-05-19T16:44:21.832Z,98443.00
2023-05-19T16:47:24.705Z,98434.44
2023-05-19T16:50:27.520Z,98443.28
2023-05-19T16:53:32.130Z,98430.22
2023-05-19T16:56:34.846Z,98430.50
2023-05-19T16:59:37.598Z,98433.34
2023-05-19T17:02:40.496Z,98423.59
2023-05-19T17:05:43.586Z,98430.13
2023-05-19T17:08:47.695Z,98423.81
2023-05-19T17:11:50.458Z,98422.81
2023-05-19T17:14:53.488Z,98415.38
2023-05-19T17:17:56.333Z,98428.19
2023-05-19T17:21:03.387Z,98420.78
2023-05-19T17:24:07.891Z,98417.28
2023-05-19T17:27:10.683Z,98420.63
2023-05-19T17:30:14.432Z,98424.09
2023-05-19T17:33:17.458Z,98409.84
2023-05-19T17:36:20.666Z,98417.78
2023-05-19T17:39:25.490Z,98414.59
2023-05-19T17:42:29.151Z,98408.47
2023-05-19T17:45:32.057Z,98406.69
2023-05-19T17:48:36.188Z,98420.03
2023-05-19T17:51:39.904Z,98413.94
2023-05-19T17:54:44.154Z,98413.75
2023-05-19T17:57:47.827Z,98416.84
2023-05-19T18:00:51.011Z,98414.44
2023-05-19T18:03:54.611Z,98412.47
2023-05-19T18:06:59.532Z,98416.16
2023-05-19T18:10:06.143Z,98408.88
2023-05-19T18:13:10.517Z,98412.59
2023-05-19T18:16:13.833Z,98408.97
2023-05-19T18:19:16.718Z,98412.66
2023-05-19T18:22:19.536Z,98412.56
2023-05-19T18:25:23.931Z,98408.91
2023-05-19T18:28:26.669Z,98404.59
2023-05-19T18:31:29.672Z,98397.47
2023-05-19T18:34:32.571Z,98399.25
2023-05-19T18:37:35.740Z,98398.31
2023-05-19T18:40:44.051Z,98400.09
2023-05-19T18:43:46.700Z,98397.50
2023-05-19T18:46:49.486Z,98401.16
2023-05-19T18:49:52.507Z,98397.50
2023-05-19T18:52:55.425Z,98392.84
2023-05-19T18:55:59.599Z,98396.81
2023-05-19T18:59:02.290Z,98399.09
2023-05-19T19:02:05.145Z,98395.47
2023-05-19T19:05:09.513Z,98395.00
2023-05-19T19:08:12.773Z,98398.63
2023-05-19T19:11:17.049Z,98400.06
2023-05-19T19:14:19.847Z,98409.59
2023-05-19T19:17:24.933Z,98406.22
2023-05-19T19:20:27.894Z,98402.56
2023-05-19T19:23:30.653Z,98413.97
2023-05-19T19:26:34.950Z,98418.06
2023-05-19T19:29:37.842Z,98416.97
2023-05-19T19:32:40.557Z,98420.28
2023-05-19T19:35:46.191Z,98422.22
2023-05-19T19:38:49.435Z,98420.03
2023-05-19T19:41:54.729Z,98425.44
2023-05-19T19:44:57.496Z,98425.44
2023-05-19T19:48:00.224Z,98421.38
2023-05-19T19:51:02.992Z,98413.56
2023-05-19T19:54:05.846Z,98408.16
2023-05-19T19:57:10.041Z,98405.47
2023-05-19T20:00:14.030Z,98403.59
2023-05-19T20:03:16.908Z,98414.34
2023-05-19T20:06:19.762Z,98407.84
2023-05-19T20:09:22.494Z,98406.78
2023-05-19T20:12:26.782Z,98407.00
2023-05-19T20:15:29.513Z,98410.13
2023-05-19T20:18:32.306Z,98407.09
2023-05-19T20:21:34.953Z,98411.38
2023-05-19T20:24:38.058Z,98408.91
2023-05-19T20:27:42.316Z,98412.50
2023-05-19T20:30:45.124Z,98413.28
2023-05-19T20:33:47.977Z,98407.03
2023-05-19T20:36:50.944Z,98409.94
2023-05-19T20:39:53.819Z,98404.94
2023-05-19T20:42:58.243Z,98405.44
2023-05-19T20:46:03.861Z,98409.50
2023-05-19T20:49:06.752Z,98408.69
2023-05-19T20:52:09.536Z,98410.06
2023-05-19T20:55:12.583Z,98399.53
2023-05-19T20:58:16.888Z,98398.94
2023-05-19T21:01:19.852Z,98399.38
2023-05-19T21:04:22.711Z,98397.78
2023-05-19T21:07:25.999Z,98393.38
2023-05-19T21:10:28.791Z,98396.56
2023-05-19T21:13:33.850Z,98395.28
2023-05-19T21:16:38.768Z,98389.13
2023-05-19T21:19:41.726Z,98394.06
2023-05-19T21:22:44.903Z,98381.75
2023-05-19T21:25:47.643Z,98385.53
2023-05-19T21:28:51.864Z,98395.50
2023-05-19T21:31:56.196Z,98386.56
2023-05-19T21:34:59.904Z,98381.41
2023-05-19T21:38:11.885Z,98378.72
2023-05-19T21:41:18.861Z,98381.41
2023-05-19T21:44:23.749Z,98377.56
2023-05-19T21:47:26.644Z,98375.72
2023-05-19T21:50:29.487Z,98372.84
2023-05-19T21:53:32.799Z,98364.84
2023-05-19T21:56:35.608Z,98357.09
2023-05-19T21:59:39.782Z,98364.09
2023-05-19T22:02:43.049Z,98356.81
2023-05-19T22:05:49.716Z,98364.22
2023-05-19T22:08:52.460Z,98361.84
2023-05-19T22:11:55.207Z,98356.47
2023-05-19T22:15:00.542Z,98362.44
2023-05-19T22:18:03.481Z,98360.97
2023-05-19T22:21:06.643Z,98357.53
2023-05-19T22:24:09.386Z,98357.63
2023-05-19T22:27:12.172Z,98343.63
2023-05-19T22:30:16.464Z,98338.31
2023-05-19T22:33:19.265Z,98339.94
2023-05-19T22:36:21.974Z,98344.81
2023-05-19T22:39:24.763Z,98350.84
2023-05-19T22:42:27.891Z,98348.75
2023-05-19T22:45:33.424Z,98350.22
2023-05-19T22:48:36.453Z,98351.88
2023-05-19T22:51:39.338Z,98347.06
2023-05-19T22:54:42.304Z,98344.44
2023-05-19T22:57:44.995Z,98346.94
2023-05-19T23:00:49.145Z,98349.06
2023-05-19T23:03:52.028Z,98341.88
2023-05-19T23:06:54.752Z,98345.41
2023-05-19T23:09:57.564Z,98343.59
2023-05-19T23:13:00.321Z,98347.91
2023-05-19T23:16:06.658Z,98342.59
2023-05-19T23:19:09.467Z,98337.47
2023-05-19T23:22:12.338Z,98339.09
2023-05-19T23:25:15.578Z,98339.66
2023-05-19T23:28:18.424Z,98339.38
2023-05-19T23:31:22.525Z,98338.63
2023-05-19T23:34:25.478Z,98334.28
2023-05-19T23:37:28.273Z,98330.78
2023-05-19T23:40:31.566Z,98329.16
2023-05-19T23:43:34.308Z,98329.16
2023-05-19T23:46:38.393Z,98327.03
2023-05-19T23:49:41.212Z,98325.41
2023-05-19T23:52:43.942Z,98311.91
2023-05-19T23:55:47.457Z,98321.31
2023-05-19T23:58:50.238Z,98319.75
